sensor_id;sensor_type;location;lat;lon;timestamp;temperature;humidity
8002;DHT22;4046;48.774;8.732;2022-09-09T00:06:30;15.00;99.90
8002;DHT22;4046;48.774;8.732;2022-09-09T00:12:01;15.10;99.90
8002;DHT22;4046;48.774;8.732;2022-09-09T00:17:09;15.20;99.90
8002;DHT22;4046;48.774;8.732;2022-09-09T00:19:42;15.60;99.90
8002;DHT22;4046;48.774;8.732;2022-09-09T00:22:20;15.30;99.90
8002;DHT22;4046;48.774;8.732;2022-09-09T00:24:51;15.70;99.90
8002;DHT22;4046;48.774;8.732;2022-09-09T00:27:41;15.30;99.90
8002;DHT22;4046;48.774;8.732;2022-09-09T00:30:24;15.40;99.90
8002;DHT22;4046;48.774;8.732;2022-09-09T00:32:58;15.30;99.90
8002;DHT22;4046;48.774;8.732;2022-09-09T00:35:29;15.20;99.90
8002;DHT22;4046;48.774;8.732;2022-09-09T00:38:00;15.50;99.90
8002;DHT22;4046;48.774;8.732;2022-09-09T00:40:35;15.30;99.90
8002;DHT22;4046;48.774;8.732;2022-09-09T00:45:59;15.60;99.90
8002;DHT22;4046;48.774;8.732;2022-09-09T00:48:38;15.70;99.90
8002;DHT22;4046;48.774;8.732;2022-09-09T00:52:01;15.70;99.90
8002;DHT22;4046;48.774;8.732;2022-09-09T00:57:03;15.60;99.90
8002;DHT22;4046;48.774;8.732;2022-09-09T01:03:07;15.70;99.90
8002;DHT22;4046;48.774;8.732;2022-09-09T01:05:05;15.60;99.90
8002;DHT22;4046;48.774;8.732;2022-09-09T01:07:33;15.50;99.90
8002;DHT22;4046;48.774;8.732;2022-09-09T01:10:00;15.70;99.90
8002;DHT22;4046;48.774;8.732;2022-09-09T01:12:40;15.50;99.90
8002;DHT22;4046;48.774;8.732;2022-09-09T01:15:18;15.30;99.90
8002;DHT22;4046;48.774;8.732;2022-09-09T01:20:22;15.10;99.90
8002;DHT22;4046;48.774;8.732;2022-09-09T01:23:13;14.90;99.90
8002;DHT22;4046;48.774;8.732;2022-09-09T01:26:18;14.70;99.90
8002;DHT22;4046;48.774;8.732;2022-09-09T01:28:47;14.30;99.90
8002;DHT22;4046;48.774;8.732;2022-09-09T01:31:20;14.30;99.90
8002;DHT22;4046;48.774;8.732;2022-09-09T01:33:47;13.90;99.90
8002;DHT22;4046;48.774;8.732;2022-09-09T01:36:18;13.90;99.90
8002;DHT22;4046;48.774;8.732;2022-09-09T01:38:45;14.00;99.90
8002;DHT22;4046;48.774;8.732;2022-09-09T01:41:10;14.00;99.90
8002;DHT22;4046;48.774;8.732;2022-09-09T01:43:37;14.10;99.90
8002;DHT22;4046;48.774;8.732;2022-09-09T01:46:03;14.20;99.90
8002;DHT22;4046;48.774;8.732;2022-09-09T01:48:29;14.50;99.90
8002;DHT22;4046;48.774;8.732;2022-09-09T01:50:55;14.70;99.90
8002;DHT22;4046;48.774;8.732;2022-09-09T01:53:22;14.80;99.90
8002;DHT22;4046;48.774;8.732;2022-09-09T02:01:09;14.80;99.90
8002;DHT22;4046;48.774;8.732;2022-09-09T02:03:44;14.80;99.90
8002;DHT22;4046;48.774;8.732;2022-09-09T02:08:55;14.90;99.90
8002;DHT22;4046;48.774;8.732;2022-09-09T02:11:26;14.80;99.90
8002;DHT22;4046;48.774;8.732;2022-09-09T02:14:03;14.70;99.90
8002;DHT22;4046;48.774;8.732;2022-09-09T02:16:52;14.40;99.90
8002;DHT22;4046;48.774;8.732;2022-09-09T02:19:23;13.80;99.90
8002;DHT22;4046;48.774;8.732;2022-09-09T02:21:54;13.70;99.90
8002;DHT22;4046;48.774;8.732;2022-09-09T02:24:21;13.60;99.90
8002;DHT22;4046;48.774;8.732;2022-09-09T02:26:50;13.60;99.90
8002;DHT22;4046;48.774;8.732;2022-09-09T02:29:21;13.20;99.90
8002;DHT22;4046;48.774;8.732;2022-09-09T02:31:49;13.20;99.90
8002;DHT22;4046;48.774;8.732;2022-09-09T02:34:18;13.30;99.90
8002;DHT22;4046;48.774;8.732;2022-09-09T02:36:47;13.50;99.90
8002;DHT22;4046;48.774;8.732;2022-09-09T02:39:13;13.50;99.90
8002;DHT22;4046;48.774;8.732;2022-09-09T02:41:41;13.50;99.90
8002;DHT22;4046;48.774;8.732;2022-09-09T02:44:17;13.70;99.90
8002;DHT22;4046;48.774;8.732;2022-09-09T02:47:10;13.70;99.90
8002;DHT22;4046;48.774;8.732;2022-09-09T02:52:16;13.70;99.90
8002;DHT22;4046;48.774;8.732;2022-09-09T02:54:44;13.90;99.90
8002;DHT22;4046;48.774;8.732;2022-09-09T02:57:13;14.00;99.90
8002;DHT22;4046;48.774;8.732;2022-09-09T02:59:44;14.10;99.90
8002;DHT22;4046;48.774;8.732;2022-09-09T03:02:10;14.20;99.90
8002;DHT22;4046;48.774;8.732;2022-09-09T03:04:37;14.20;99.90
8002;DHT22;4046;48.774;8.732;2022-09-09T03:07:03;14.30;99.90
8002;DHT22;4046;48.774;8.732;2022-09-09T03:09:30;14.50;99.90
8002;DHT22;4046;48.774;8.732;2022-09-09T03:11:56;14.60;99.90
8002;DHT22;4046;48.774;8.732;2022-09-09T03:14:22;14.70;99.90
8002;DHT22;4046;48.774;8.732;2022-09-09T03:16:53;14.40;99.90
8002;DHT22;4046;48.774;8.732;2022-09-09T03:19:20;14.10;99.90
8002;DHT22;4046;48.774;8.732;2022-09-09T03:21:47;14.10;99.90
8002;DHT22;4046;48.774;8.732;2022-09-09T03:24:13;14.10;99.90
8002;DHT22;4046;48.774;8.732;2022-09-09T03:26:40;14.00;99.90
8002;DHT22;4046;48.774;8.732;2022-09-09T03:29:07;14.10;99.90
8002;DHT22;4046;48.774;8.732;2022-09-09T03:31:33;14.10;99.90
8002;DHT22;4046;48.774;8.732;2022-09-09T03:33:59;14.20;99.90
8002;DHT22;4046;48.774;8.732;2022-09-09T03:36:26;14.40;99.90
8002;DHT22;4046;48.774;8.732;2022-09-09T03:38:52;14.50;99.90
8002;DHT22;4046;48.774;8.732;2022-09-09T03:41:19;14.40;99.90
8002;DHT22;4046;48.774;8.732;2022-09-09T03:43:46;14.00;99.90
8002;DHT22;4046;48.774;8.732;2022-09-09T03:46:12;13.80;99.90
8002;DHT22;4046;48.774;8.732;2022-09-09T03:48:37;13.80;99.90
8002;DHT22;4046;48.774;8.732;2022-09-09T03:51:03;13.80;99.90
8002;DHT22;4046;48.774;8.732;2022-09-09T03:53:29;13.60;99.90
8002;DHT22;4046;48.774;8.732;2022-09-09T03:55:56;13.20;99.90
8002;DHT22;4046;48.774;8.732;2022-09-09T03:58:25;13.10;99.90
8002;DHT22;4046;48.774;8.732;2022-09-09T04:01:04;13.00;99.90
8002;DHT22;4046;48.774;8.732;2022-09-09T04:03:31;13.20;99.90
8002;DHT22;4046;48.774;8.732;2022-09-09T04:05:58;13.20;99.90
8002;DHT22;4046;48.774;8.732;2022-09-09T04:08:24;13.20;99.90
8002;DHT22;4046;48.774;8.732;2022-09-09T04:10:53;13.10;99.90
8002;DHT22;4046;48.774;8.732;2022-09-09T04:13:24;13.20;99.90
8002;DHT22;4046;48.774;8.732;2022-09-09T04:15:55;13.80;99.90
8002;DHT22;4046;48.774;8.732;2022-09-09T04:18:22;13.60;99.90
8002;DHT22;4046;48.774;8.732;2022-09-09T04:20:49;13.80;99.90
8002;DHT22;4046;48.774;8.732;2022-09-09T04:23:16;13.80;99.90
8002;DHT22;4046;48.774;8.732;2022-09-09T04:25:45;13.90;99.90
8002;DHT22;4046;48.774;8.732;2022-09-09T04:28:13;13.90;99.90
8002;DHT22;4046;48.774;8.732;2022-09-09T04:30:40;14.00;99.90
8002;DHT22;4046;48.774;8.732;2022-09-09T04:33:06;14.00;99.90
8002;DHT22;4046;48.774;8.732;2022-09-09T04:35:32;13.90;99.90
8002;DHT22;4046;48.774;8.732;2022-09-09T04:37:58;13.90;99.90
8002;DHT22;4046;48.774;8.732;2022-09-09T04:40:24;13.90;99.90
8002;DHT22;4046;48.774;8.732;2022-09-09T04:42:51;14.00;99.90
8002;DHT22;4046;48.774;8.732;2022-09-09T04:45:16;14.00;99.90
8002;DHT22;4046;48.774;8.732;2022-09-09T04:47:42;14.00;99.90
8002;DHT22;4046;48.774;8.732;2022-09-09T04:50:08;14.10;99.90
8002;DHT22;4046;48.774;8.732;2022-09-09T04:52:35;13.90;99.90
8002;DHT22;4046;48.774;8.732;2022-09-09T04:55:01;13.90;99.90
8002;DHT22;4046;48.774;8.732;2022-09-09T04:57:27;14.00;99.90
8002;DHT22;4046;48.774;8.732;2022-09-09T04:59:54;14.10;99.90
8002;DHT22;4046;48.774;8.732;2022-09-09T05:02:20;14.10;99.90
8002;DHT22;4046;48.774;8.732;2022-09-09T05:04:45;13.90;99.90
8002;DHT22;4046;48.774;8.732;2022-09-09T05:07:11;13.90;99.90
8002;DHT22;4046;48.774;8.732;2022-09-09T05:09:37;14.00;99.90
8002;DHT22;4046;48.774;8.732;2022-09-09T05:12:02;13.90;99.90
8002;DHT22;4046;48.774;8.732;2022-09-09T05:14:29;14.00;99.90
8002;DHT22;4046;48.774;8.732;2022-09-09T05:16:55;14.20;99.90
8002;DHT22;4046;48.774;8.732;2022-09-09T05:19:21;14.10;99.90
8002;DHT22;4046;48.774;8.732;2022-09-09T05:21:48;14.00;99.90
8002;DHT22;4046;48.774;8.732;2022-09-09T05:24:13;14.00;99.90
8002;DHT22;4046;48.774;8.732;2022-09-09T05:26:40;14.20;99.90
8002;DHT22;4046;48.774;8.732;2022-09-09T05:29:05;14.30;99.90
8002;DHT22;4046;48.774;8.732;2022-09-09T05:31:31;13.90;99.90
8002;DHT22;4046;48.774;8.732;2022-09-09T05:33:58;13.80;99.90
8002;DHT22;4046;48.774;8.732;2022-09-09T05:36:24;13.90;99.90
8002;DHT22;4046;48.774;8.732;2022-09-09T05:38:50;13.90;99.90
8002;DHT22;4046;48.774;8.732;2022-09-09T05:41:16;14.10;99.90
8002;DHT22;4046;48.774;8.732;2022-09-09T05:43:43;14.20;99.90
8002;DHT22;4046;48.774;8.732;2022-09-09T05:46:19;13.70;99.90
8002;DHT22;4046;48.774;8.732;2022-09-09T05:48:46;13.20;99.90
8002;DHT22;4046;48.774;8.732;2022-09-09T05:51:15;13.20;99.90
8002;DHT22;4046;48.774;8.732;2022-09-09T05:53:41;13.30;99.90
8002;DHT22;4046;48.774;8.732;2022-09-09T05:56:14;13.40;99.90
8002;DHT22;4046;48.774;8.732;2022-09-09T05:58:40;13.60;99.90
8002;DHT22;4046;48.774;8.732;2022-09-09T06:01:08;13.40;99.90
8002;DHT22;4046;48.774;8.732;2022-09-09T06:03:35;13.40;99.90
8002;DHT22;4046;48.774;8.732;2022-09-09T06:06:03;13.60;99.90
8002;DHT22;4046;48.774;8.732;2022-09-09T06:08:37;13.70;99.90
8002;DHT22;4046;48.774;8.732;2022-09-09T06:13:32;14.00;99.90
8002;DHT22;4046;48.774;8.732;2022-09-09T06:15:58;14.00;99.90
8002;DHT22;4046;48.774;8.732;2022-09-09T06:18:25;13.80;99.90
8002;DHT22;4046;48.774;8.732;2022-09-09T06:23:21;13.80;99.90
8002;DHT22;4046;48.774;8.732;2022-09-09T06:25:47;13.90;99.90
8002;DHT22;4046;48.774;8.732;2022-09-09T06:28:15;14.00;99.90
8002;DHT22;4046;48.774;8.732;2022-09-09T06:30:41;14.40;99.90
8002;DHT22;4046;48.774;8.732;2022-09-09T06:33:07;14.20;99.90
8002;DHT22;4046;48.774;8.732;2022-09-09T06:35:32;14.30;99.90
8002;DHT22;4046;48.774;8.732;2022-09-09T06:37:58;14.40;99.90
8002;DHT22;4046;48.774;8.732;2022-09-09T06:40:24;14.50;99.90
8002;DHT22;4046;48.774;8.732;2022-09-09T06:42:50;14.60;99.90
8002;DHT22;4046;48.774;8.732;2022-09-09T06:45:16;14.70;99.90
8002;DHT22;4046;48.774;8.732;2022-09-09T06:47:43;14.70;99.90
8002;DHT22;4046;48.774;8.732;2022-09-09T06:50:09;14.80;99.90
8002;DHT22;4046;48.774;8.732;2022-09-09T06:52:35;14.90;99.90
8002;DHT22;4046;48.774;8.732;2022-09-09T06:55:01;15.00;99.90
8002;DHT22;4046;48.774;8.732;2022-09-09T06:57:28;15.10;99.90
8002;DHT22;4046;48.774;8.732;2022-09-09T06:59:53;15.30;99.90
8002;DHT22;4046;48.774;8.732;2022-09-09T07:02:19;15.50;99.90
8002;DHT22;4046;48.774;8.732;2022-09-09T07:04:45;15.70;99.90
8002;DHT22;4046;48.774;8.732;2022-09-09T07:07:11;16.00;99.90
8002;DHT22;4046;48.774;8.732;2022-09-09T07:09:39;16.20;99.90
8002;DHT22;4046;48.774;8.732;2022-09-09T07:12:06;16.30;99.90
8002;DHT22;4046;48.774;8.732;2022-09-09T07:14:32;16.50;99.90
8002;DHT22;4046;48.774;8.732;2022-09-09T07:16:59;16.50;99.90
8002;DHT22;4046;48.774;8.732;2022-09-09T07:19:25;16.40;99.90
8002;DHT22;4046;48.774;8.732;2022-09-09T07:21:51;15.90;99.90
8002;DHT22;4046;48.774;8.732;2022-09-09T07:24:17;15.60;99.90
8002;DHT22;4046;48.774;8.732;2022-09-09T07:26:43;15.70;99.90
8002;DHT22;4046;48.774;8.732;2022-09-09T07:29:09;15.70;99.90
8002;DHT22;4046;48.774;8.732;2022-09-09T07:31:39;15.70;99.90
8002;DHT22;4046;48.774;8.732;2022-09-09T07:34:05;16.00;99.90
8002;DHT22;4046;48.774;8.732;2022-09-09T07:36:33;16.00;99.90
8002;DHT22;4046;48.774;8.732;2022-09-09T07:39:02;16.10;99.90
8002;DHT22;4046;48.774;8.732;2022-09-09T07:41:34;16.00;99.90
8002;DHT22;4046;48.774;8.732;2022-09-09T07:44:04;16.10;99.90
8002;DHT22;4046;48.774;8.732;2022-09-09T07:46:30;16.40;99.90
8002;DHT22;4046;48.774;8.732;2022-09-09T07:48:57;16.70;99.90
8002;DHT22;4046;48.774;8.732;2022-09-09T07:51:35;16.70;99.90
8002;DHT22;4046;48.774;8.732;2022-09-09T07:54:05;17.10;99.90
8002;DHT22;4046;48.774;8.732;2022-09-09T07:56:32;17.30;99.90
8002;DHT22;4046;48.774;8.732;2022-09-09T07:58:58;17.30;99.90
8002;DHT22;4046;48.774;8.732;2022-09-09T08:01:28;17.20;99.90
8002;DHT22;4046;48.774;8.732;2022-09-09T08:04:00;17.10;99.90
8002;DHT22;4046;48.774;8.732;2022-09-09T08:06:32;17.10;99.90
8002;DHT22;4046;48.774;8.732;2022-09-09T08:08:59;17.40;99.90
8002;DHT22;4046;48.774;8.732;2022-09-09T08:11:26;17.80;99.90
8002;DHT22;4046;48.774;8.732;2022-09-09T08:13:53;17.80;99.90
8002;DHT22;4046;48.774;8.732;2022-09-09T08:16:22;18.00;99.90
8002;DHT22;4046;48.774;8.732;2022-09-09T08:18:49;17.80;99.90
8002;DHT22;4046;48.774;8.732;2022-09-09T08:21:18;18.10;99.90
8002;DHT22;4046;48.774;8.732;2022-09-09T08:23:45;18.00;99.90
8002;DHT22;4046;48.774;8.732;2022-09-09T08:26:14;17.90;99.90
8002;DHT22;4046;48.774;8.732;2022-09-09T08:28:41;18.00;99.90
8002;DHT22;4046;48.774;8.732;2022-09-09T08:31:14;18.30;99.90
8002;DHT22;4046;48.774;8.732;2022-09-09T08:33:41;18.60;99.90
8002;DHT22;4046;48.774;8.732;2022-09-09T08:36:10;19.00;99.90
8002;DHT22;4046;48.774;8.732;2022-09-09T08:38:37;19.20;99.90
8002;DHT22;4046;48.774;8.732;2022-09-09T08:41:16;19.30;99.90
8002;DHT22;4046;48.774;8.732;2022-09-09T08:43:47;19.30;99.90
8002;DHT22;4046;48.774;8.732;2022-09-09T08:46:24;19.60;99.90
8002;DHT22;4046;48.774;8.732;2022-09-09T08:48:57;19.60;99.90
8002;DHT22;4046;48.774;8.732;2022-09-09T08:51:27;19.80;99.90
8002;DHT22;4046;48.774;8.732;2022-09-09T08:53:57;19.80;99.90
8002;DHT22;4046;48.774;8.732;2022-09-09T08:56:26;19.60;99.90
8002;DHT22;4046;48.774;8.732;2022-09-09T08:58:55;19.40;99.90
8002;DHT22;4046;48.774;8.732;2022-09-09T09:12:35;19.20;99.90
8002;DHT22;4046;48.774;8.732;2022-09-09T09:15:01;20.00;99.90
8002;DHT22;4046;48.774;8.732;2022-09-09T09:17:28;20.20;99.90
8002;DHT22;4046;48.774;8.732;2022-09-09T09:19:58;19.60;99.90
8002;DHT22;4046;48.774;8.732;2022-09-09T09:30:58;21.00;99.90
8002;DHT22;4046;48.774;8.732;2022-09-09T09:33:52;21.40;99.90
8002;DHT22;4046;48.774;8.732;2022-09-09T09:36:19;21.10;99.90
8002;DHT22;4046;48.774;8.732;2022-09-09T09:38:59;20.90;99.90
8002;DHT22;4046;48.774;8.732;2022-09-09T09:41:38;21.50;99.90
8002;DHT22;4046;48.774;8.732;2022-09-09T09:44:04;22.50;99.90
8002;DHT22;4046;48.774;8.732;2022-09-09T09:46:30;22.90;99.90
8002;DHT22;4046;48.774;8.732;2022-09-09T09:49:09;23.30;99.90
8002;DHT22;4046;48.774;8.732;2022-09-09T09:51:35;23.50;99.90
8002;DHT22;4046;48.774;8.732;2022-09-09T09:56:41;23.90;99.90
8002;DHT22;4046;48.774;8.732;2022-09-09T09:59:34;23.30;99.90
8002;DHT22;4046;48.774;8.732;2022-09-09T10:04:42;21.80;99.90
8002;DHT22;4046;48.774;8.732;2022-09-09T10:07:19;21.30;99.90
8002;DHT22;4046;48.774;8.732;2022-09-09T10:09:53;21.00;99.90
8002;DHT22;4046;48.774;8.732;2022-09-09T10:17:52;20.90;99.90
8002;DHT22;4046;48.774;8.732;2022-09-09T10:28:57;21.40;99.90
8002;DHT22;4046;48.774;8.732;2022-09-09T10:42:46;20.30;99.90
8002;DHT22;4046;48.774;8.732;2022-09-09T10:45:18;20.10;99.90
8002;DHT22;4046;48.774;8.732;2022-09-09T10:48:09;19.60;99.90
8002;DHT22;4046;48.774;8.732;2022-09-09T10:54:22;18.40;99.90
8002;DHT22;4046;48.774;8.732;2022-09-09T10:56:57;18.30;99.90
8002;DHT22;4046;48.774;8.732;2022-09-09T10:59:33;18.20;99.90
8002;DHT22;4046;48.774;8.732;2022-09-09T11:02:16;18.10;99.90
8002;DHT22;4046;48.774;8.732;2022-09-09T11:07:44;18.00;99.90
8002;DHT22;4046;48.774;8.732;2022-09-09T11:12:46;17.90;99.90
8002;DHT22;4046;48.774;8.732;2022-09-09T11:15:24;17.90;99.90
8002;DHT22;4046;48.774;8.732;2022-09-09T11:17:56;17.90;99.90
8002;DHT22;4046;48.774;8.732;2022-09-09T11:20:25;17.80;99.90
8002;DHT22;4046;48.774;8.732;2022-09-09T11:23:02;18.20;99.90
8002;DHT22;4046;48.774;8.732;2022-09-09T11:25:45;18.00;99.90
8002;DHT22;4046;48.774;8.732;2022-09-09T11:28:59;18.30;99.90
8002;DHT22;4046;48.774;8.732;2022-09-09T11:31:23;18.40;99.90
8002;DHT22;4046;48.774;8.732;2022-09-09T11:34:19;18.80;99.90
8002;DHT22;4046;48.774;8.732;2022-09-09T11:42:28;19.60;99.90
8002;DHT22;4046;48.774;8.732;2022-09-09T11:44:55;19.80;99.90
8002;DHT22;4046;48.774;8.732;2022-09-09T11:47:31;19.80;99.90
8002;DHT22;4046;48.774;8.732;2022-09-09T11:52:46;19.40;99.90
8002;DHT22;4046;48.774;8.732;2022-09-09T11:55:30;19.60;99.90
8002;DHT22;4046;48.774;8.732;2022-09-09T12:00:42;20.20;99.90
8002;DHT22;4046;48.774;8.732;2022-09-09T12:03:49;20.20;99.90
8002;DHT22;4046;48.774;8.732;2022-09-09T12:06:26;19.80;99.90
8002;DHT22;4046;48.774;8.732;2022-09-09T12:08:57;19.80;99.90
8002;DHT22;4046;48.774;8.732;2022-09-09T12:11:29;20.00;99.90
8002;DHT22;4046;48.774;8.732;2022-09-09T12:13:58;20.10;99.90
8002;DHT22;4046;48.774;8.732;2022-09-09T12:16:43;20.20;99.90
8002;DHT22;4046;48.774;8.732;2022-09-09T12:24:43;20.10;99.90
8002;DHT22;4046;48.774;8.732;2022-09-09T12:27:24;20.50;99.90
8002;DHT22;4046;48.774;8.732;2022-09-09T12:30:09;20.40;99.90
8002;DHT22;4046;48.774;8.732;2022-09-09T12:32:36;20.40;99.90
8002;DHT22;4046;48.774;8.732;2022-09-09T12:37:55;21.40;99.90
8002;DHT22;4046;48.774;8.732;2022-09-09T12:40:31;22.10;99.90
8002;DHT22;4046;48.774;8.732;2022-09-09T12:43:00;22.50;99.90
8002;DHT22;4046;48.774;8.732;2022-09-09T12:45:29;22.10;99.90
8002;DHT22;4046;48.774;8.732;2022-09-09T12:48:08;21.40;99.90
8002;DHT22;4046;48.774;8.732;2022-09-09T12:50:37;21.40;99.90
8002;DHT22;4046;48.774;8.732;2022-09-09T12:53:36;21.60;99.90
8002;DHT22;4046;48.774;8.732;2022-09-09T12:56:09;21.70;99.90
8002;DHT22;4046;48.774;8.732;2022-09-09T12:58:47;21.50;99.90
8002;DHT22;4046;48.774;8.732;2022-09-09T13:01:30;21.10;99.90
8002;DHT22;4046;48.774;8.732;2022-09-09T13:03:56;21.20;99.90
8002;DHT22;4046;48.774;8.732;2022-09-09T13:06:27;21.20;99.90
8002;DHT22;4046;48.774;8.732;2022-09-09T13:08:54;21.50;99.90
8002;DHT22;4046;48.774;8.732;2022-09-09T13:13:55;21.80;99.90
8002;DHT22;4046;48.774;8.732;2022-09-09T13:16:30;22.50;99.90
8002;DHT22;4046;48.774;8.732;2022-09-09T13:18:59;23.20;99.90
8002;DHT22;4046;48.774;8.732;2022-09-09T13:21:33;23.70;99.90
8002;DHT22;4046;48.774;8.732;2022-09-09T13:23:58;23.40;99.90
8002;DHT22;4046;48.774;8.732;2022-09-09T13:26:29;24.30;99.90
8002;DHT22;4046;48.774;8.732;2022-09-09T13:29:09;25.00;99.90
8002;DHT22;4046;48.774;8.732;2022-09-09T13:31:40;25.30;99.90
8002;DHT22;4046;48.774;8.732;2022-09-09T13:34:29;25.20;99.90
8002;DHT22;4046;48.774;8.732;2022-09-09T13:36:59;25.50;99.90
8002;DHT22;4046;48.774;8.732;2022-09-09T13:39:33;25.80;99.90
8002;DHT22;4046;48.774;8.732;2022-09-09T13:42:00;24.10;99.90
8002;DHT22;4046;48.774;8.732;2022-09-09T13:44:38;24.30;99.90
8002;DHT22;4046;48.774;8.732;2022-09-09T13:47:05;23.20;99.90
8002;DHT22;4046;48.774;8.732;2022-09-09T13:49:31;23.60;99.90
8002;DHT22;4046;48.774;8.732;2022-09-09T13:52:16;24.20;99.90
8002;DHT22;4046;48.774;8.732;2022-09-09T13:54:42;24.70;99.90
8002;DHT22;4046;48.774;8.732;2022-09-09T13:57:16;23.60;99.90
8002;DHT22;4046;48.774;8.732;2022-09-09T13:59:42;23.50;99.90
8002;DHT22;4046;48.774;8.732;2022-09-09T14:02:08;23.50;99.90
8002;DHT22;4046;48.774;8.732;2022-09-09T14:04:34;23.30;99.90
8002;DHT22;4046;48.774;8.732;2022-09-09T14:07:01;23.10;99.90
8002;DHT22;4046;48.774;8.732;2022-09-09T14:09:27;22.90;99.90
8002;DHT22;4046;48.774;8.732;2022-09-09T14:11:52;22.50;99.90
8002;DHT22;4046;48.774;8.732;2022-09-09T14:14:18;22.40;99.90
8002;DHT22;4046;48.774;8.732;2022-09-09T14:16:44;22.70;99.90
8002;DHT22;4046;48.774;8.732;2022-09-09T14:19:10;22.80;99.90
8002;DHT22;4046;48.774;8.732;2022-09-09T14:21:35;22.90;99.90
8002;DHT22;4046;48.774;8.732;2022-09-09T14:24:01;22.80;99.90
8002;DHT22;4046;48.774;8.732;2022-09-09T14:26:27;22.70;99.90
8002;DHT22;4046;48.774;8.732;2022-09-09T14:28:54;22.70;99.90
8002;DHT22;4046;48.774;8.732;2022-09-09T14:31:19;22.80;99.90
8002;DHT22;4046;48.774;8.732;2022-09-09T14:33:46;22.70;99.90
8002;DHT22;4046;48.774;8.732;2022-09-09T14:36:12;22.90;99.90
8002;DHT22;4046;48.774;8.732;2022-09-09T14:38:38;22.70;99.90
8002;DHT22;4046;48.774;8.732;2022-09-09T14:41:16;22.70;99.90
8002;DHT22;4046;48.774;8.732;2022-09-09T14:43:43;22.70;99.90
8002;DHT22;4046;48.774;8.732;2022-09-09T14:46:11;22.10;99.90
8002;DHT22;4046;48.774;8.732;2022-09-09T14:48:37;21.70;99.90
8002;DHT22;4046;48.774;8.732;2022-09-09T14:51:06;21.70;99.90
8002;DHT22;4046;48.774;8.732;2022-09-09T14:53:32;21.80;99.90
8002;DHT22;4046;48.774;8.732;2022-09-09T14:56:10;22.00;99.90
8002;DHT22;4046;48.774;8.732;2022-09-09T14:58:37;22.20;99.90
8002;DHT22;4046;48.774;8.732;2022-09-09T15:01:14;21.90;99.90
8002;DHT22;4046;48.774;8.732;2022-09-09T15:03:41;22.00;99.90
8002;DHT22;4046;48.774;8.732;2022-09-09T15:06:12;21.40;99.90
8002;DHT22;4046;48.774;8.732;2022-09-09T15:08:40;21.80;99.90
8002;DHT22;4046;48.774;8.732;2022-09-09T15:11:07;21.80;99.90
8002;DHT22;4046;48.774;8.732;2022-09-09T15:13:34;21.50;99.90
8002;DHT22;4046;48.774;8.732;2022-09-09T15:16:07;21.20;99.90
8002;DHT22;4046;48.774;8.732;2022-09-09T15:18:33;21.40;99.90
8002;DHT22;4046;48.774;8.732;2022-09-09T15:20:59;21.60;99.90
8002;DHT22;4046;48.774;8.732;2022-09-09T15:23:27;21.10;99.90
8002;DHT22;4046;48.774;8.732;2022-09-09T15:25:54;20.90;99.90
8002;DHT22;4046;48.774;8.732;2022-09-09T15:28:21;20.80;99.90
8002;DHT22;4046;48.774;8.732;2022-09-09T15:30:50;21.00;99.90
8002;DHT22;4046;48.774;8.732;2022-09-09T15:33:18;21.20;99.90
8002;DHT22;4046;48.774;8.732;2022-09-09T15:35:44;21.30;99.90
8002;DHT22;4046;48.774;8.732;2022-09-09T15:38:11;21.30;99.90
8002;DHT22;4046;48.774;8.732;2022-09-09T15:40:39;21.50;99.90
8002;DHT22;4046;48.774;8.732;2022-09-09T15:43:06;21.50;99.90
8002;DHT22;4046;48.774;8.732;2022-09-09T15:45:33;21.60;99.90
8002;DHT22;4046;48.774;8.732;2022-09-09T15:48:00;21.70;99.90
8002;DHT22;4046;48.774;8.732;2022-09-09T15:50:26;21.70;99.90
8002;DHT22;4046;48.774;8.732;2022-09-09T15:52:52;21.10;99.90
8002;DHT22;4046;48.774;8.732;2022-09-09T15:55:19;20.80;99.90
8002;DHT22;4046;48.774;8.732;2022-09-09T15:57:50;20.00;99.90
8002;DHT22;4046;48.774;8.732;2022-09-09T16:00:18;19.60;99.90
8002;DHT22;4046;48.774;8.732;2022-09-09T16:02:47;19.60;99.90
8002;DHT22;4046;48.774;8.732;2022-09-09T16:05:13;19.60;99.90
8002;DHT22;4046;48.774;8.732;2022-09-09T16:07:39;19.60;99.90
8002;DHT22;4046;48.774;8.732;2022-09-09T16:10:05;19.60;99.90
8002;DHT22;4046;48.774;8.732;2022-09-09T16:12:31;19.30;99.90
8002;DHT22;4046;48.774;8.732;2022-09-09T16:14:58;19.00;99.90
8002;DHT22;4046;48.774;8.732;2022-09-09T16:17:25;18.90;99.90
8002;DHT22;4046;48.774;8.732;2022-09-09T16:19:51;19.00;99.90
8002;DHT22;4046;48.774;8.732;2022-09-09T16:22:16;18.90;99.90
8002;DHT22;4046;48.774;8.732;2022-09-09T16:24:43;18.80;99.90
8002;DHT22;4046;48.774;8.732;2022-09-09T16:27:10;18.50;99.90
8002;DHT22;4046;48.774;8.732;2022-09-09T16:29:37;18.10;99.90
8002;DHT22;4046;48.774;8.732;2022-09-09T16:32:02;17.70;99.90
8002;DHT22;4046;48.774;8.732;2022-09-09T16:34:28;17.60;99.90
8002;DHT22;4046;48.774;8.732;2022-09-09T16:36:53;17.20;99.90
8002;DHT22;4046;48.774;8.732;2022-09-09T16:39:20;17.30;99.90
8002;DHT22;4046;48.774;8.732;2022-09-09T16:41:47;17.20;99.90
8002;DHT22;4046;48.774;8.732;2022-09-09T16:44:15;17.10;99.90
8002;DHT22;4046;48.774;8.732;2022-09-09T16:46:43;17.00;99.90
8002;DHT22;4046;48.774;8.732;2022-09-09T16:49:12;17.20;99.90
8002;DHT22;4046;48.774;8.732;2022-09-09T16:51:48;17.30;99.90
8002;DHT22;4046;48.774;8.732;2022-09-09T16:54:16;17.20;99.90
8002;DHT22;4046;48.774;8.732;2022-09-09T16:56:44;17.30;99.90
8002;DHT22;4046;48.774;8.732;2022-09-09T16:59:15;17.50;99.90
8002;DHT22;4046;48.774;8.732;2022-09-09T17:01:43;17.20;99.90
8002;DHT22;4046;48.774;8.732;2022-09-09T17:04:14;17.00;99.90
8002;DHT22;4046;48.774;8.732;2022-09-09T17:06:41;16.70;99.90
8002;DHT22;4046;48.774;8.732;2022-09-09T17:09:09;16.40;99.90
8002;DHT22;4046;48.774;8.732;2022-09-09T17:11:39;15.80;99.90
8002;DHT22;4046;48.774;8.732;2022-09-09T17:14:07;15.50;99.90
8002;DHT22;4046;48.774;8.732;2022-09-09T17:16:35;15.30;99.90
8002;DHT22;4046;48.774;8.732;2022-09-09T17:19:01;15.10;99.90
8002;DHT22;4046;48.774;8.732;2022-09-09T17:21:29;14.90;99.90
8002;DHT22;4046;48.774;8.732;2022-09-09T17:23:57;14.80;99.90
8002;DHT22;4046;48.774;8.732;2022-09-09T17:26:26;14.90;99.90
8002;DHT22;4046;48.774;8.732;2022-09-09T17:28:53;14.90;99.90
8002;DHT22;4046;48.774;8.732;2022-09-09T17:31:20;15.20;99.90
8002;DHT22;4046;48.774;8.732;2022-09-09T17:33:47;15.60;99.90
8002;DHT22;4046;48.774;8.732;2022-09-09T17:36:17;15.70;99.90
8002;DHT22;4046;48.774;8.732;2022-09-09T17:38:43;16.00;99.90
8002;DHT22;4046;48.774;8.732;2022-09-09T17:41:13;16.30;99.90
8002;DHT22;4046;48.774;8.732;2022-09-09T17:43:39;16.40;99.90
8002;DHT22;4046;48.774;8.732;2022-09-09T17:48:36;16.10;99.90
8002;DHT22;4046;48.774;8.732;2022-09-09T17:51:08;15.70;99.90
8002;DHT22;4046;48.774;8.732;2022-09-09T17:53:43;15.70;99.90
8002;DHT22;4046;48.774;8.732;2022-09-09T17:56:12;15.50;99.90
8002;DHT22;4046;48.774;8.732;2022-09-09T17:58:38;15.40;99.90
8002;DHT22;4046;48.774;8.732;2022-09-09T18:01:11;15.60;99.90
8002;DHT22;4046;48.774;8.732;2022-09-09T18:03:38;15.20;99.90
8002;DHT22;4046;48.774;8.732;2022-09-09T18:06:07;15.20;99.90
8002;DHT22;4046;48.774;8.732;2022-09-09T18:08:34;15.40;99.90
8002;DHT22;4046;48.774;8.732;2022-09-09T18:11:03;16.00;99.90
8002;DHT22;4046;48.774;8.732;2022-09-09T18:13:29;15.50;99.90
8002;DHT22;4046;48.774;8.732;2022-09-09T18:15:55;15.40;99.90
8002;DHT22;4046;48.774;8.732;2022-09-09T18:18:21;15.40;99.90
8002;DHT22;4046;48.774;8.732;2022-09-09T18:21:01;15.60;99.90